Avoca, Minnesota
Current Conditions -  °F | °C
As of 5:56 AM on Thursday 27 Nov 2014 (Local Time) from KDVP Reporting Station
Clear Clear  
Wind Chill: -29°   Ceiling: Unl
Heat Index: -22°   Visibility: 10mi
Dew Point: -24°   Wind: 6mph
Humidity: 81%   Direction: 340°NNW
Pressure: 30.47"   Gusts: NA
Location:  43.95°N, 95.65°W
Report Text: KDVP 271156Z AUTO 34005KT 10SM CLR M22/M24 A3047 RMK AO2 T12161240 11182 21216
Loading
Personal Weather Stations






























Interactive Weather Map New forecast layout! Learn more

10-Day Weather Forecast

Advertisements
Track Severe Weather on mobile